createdAt,value
2023-07-21T00:00:11.838Z,98684.31
2023-07-21T00:02:44.821Z,98680.69
2023-07-21T00:05:18.066Z,98682.06
2023-07-21T00:07:51.040Z,98674.28
2023-07-21T00:10:23.871Z,98668.84
2023-07-21T00:12:58.188Z,98664.88
2023-07-21T00:15:31.220Z,98662.41
2023-07-21T00:18:05.145Z,98652.78
2023-07-21T00:20:38.656Z,98646.34
2023-07-21T00:23:11.590Z,98649.16
2023-07-21T00:25:46.823Z,98654.31
2023-07-21T00:28:22.920Z,98645.25
2023-07-21T00:30:55.826Z,98643.59
2023-07-21T00:33:29.362Z,98651.41
2023-07-21T00:36:02.370Z,98647.03
2023-07-21T00:38:35.687Z,98641.97
2023-07-21T00:41:08.652Z,98643.91
2023-07-21T00:43:42.962Z,98636.91
2023-07-21T00:46:15.873Z,98646.44
2023-07-21T00:48:48.878Z,98644.19
2023-07-21T00:51:24.187Z,98644.50
2023-07-21T00:53:58.111Z,98640.09
2023-07-21T00:56:31.004Z,98644.00
2023-07-21T00:59:06.049Z,98639.69
2023-07-21T01:01:39.309Z,98644.44
2023-07-21T01:04:13.010Z,98641.56
2023-07-21T01:06:48.824Z,98634.47
2023-07-21T01:09:23.693Z,98630.59
2023-07-21T01:11:57.730Z,98625.31
2023-07-21T01:14:34.280Z,98620.47
2023-07-21T01:17:10.216Z,98621.31
2023-07-21T01:19:45.787Z,98616.66
2023-07-21T01:22:24.819Z,98610.34
2023-07-21T01:25:08.378Z,98602.91
2023-07-21T01:27:43.381Z,98605.28
2023-07-21T01:30:19.656Z,98605.28
2023-07-21T01:32:55.658Z,98605.28
2023-07-21T01:35:31.295Z,98605.97
2023-07-21T01:38:05.212Z,98611.59
2023-07-21T01:40:41.442Z,98611.97
2023-07-21T01:43:16.570Z,98607.53
2023-07-21T01:45:50.182Z,98606.91
2023-07-21T01:48:25.519Z,98606.34
2023-07-21T01:51:00.242Z,98599.97
2023-07-21T01:53:36.384Z,98600.38
2023-07-21T01:56:18.169Z,98594.00
2023-07-21T01:58:54.244Z,98598.28
2023-07-21T02:01:29.726Z,98588.16
2023-07-21T02:04:03.346Z,98593.13
2023-07-21T02:06:36.786Z,98592.94
2023-07-21T02:09:09.974Z,98593.78
2023-07-21T02:11:44.805Z,98587.00
2023-07-21T02:14:35.484Z,98589.31
2023-07-21T02:17:08.942Z,98593.03
2023-07-21T02:19:42.436Z,98583.00
2023-07-21T02:22:15.446Z,98587.69
2023-07-21T02:24:48.453Z,98583.13
2023-07-21T02:27:23.259Z,98588.34
2023-07-21T02:29:57.279Z,98578.88
2023-07-21T02:32:30.549Z,98582.19
2023-07-21T02:35:06.737Z,98581.72
2023-07-21T02:37:39.620Z,98579.09
2023-07-21T02:40:13.869Z,98583.84
2023-07-21T02:42:48.043Z,98572.88
2023-07-21T02:45:20.864Z,98574.38
2023-07-21T02:47:53.719Z,98581.41
2023-07-21T02:50:28.889Z,98575.97
2023-07-21T02:53:01.794Z,98575.47
2023-07-21T02:55:34.876Z,98567.75
2023-07-21T02:58:09.365Z,98569.19
2023-07-21T03:00:43.724Z,98563.56
2023-07-21T03:03:27.986Z,98562.94
2023-07-21T03:06:09.709Z,98567.19
2023-07-21T03:08:43.098Z,98563.16
2023-07-21T03:11:18.876Z,98559.31
2023-07-21T03:14:12.388Z,98562.78
2023-07-21T03:16:45.652Z,98561.41
2023-07-21T03:19:18.717Z,98566.88
2023-07-21T03:21:52.077Z,98568.66
2023-07-21T03:24:25.744Z,98562.63
2023-07-21T03:26:58.651Z,98560.19
2023-07-21T03:29:46.982Z,98560.22
2023-07-21T03:32:20.688Z,98560.44
2023-07-21T03:34:55.529Z,98561.97
2023-07-21T03:37:29.776Z,98555.59
2023-07-21T03:40:08.139Z,98551.13
2023-07-21T03:42:41.760Z,98557.91
2023-07-21T03:45:17.094Z,98548.50
2023-07-21T03:47:50.941Z,98549.47
2023-07-21T03:50:24.787Z,98550.47
2023-07-21T03:53:01.066Z,98542.91
2023-07-21T03:55:34.246Z,98542.38
2023-07-21T03:58:07.066Z,98542.00
2023-07-21T04:00:43.437Z,98540.28
2023-07-21T04:03:18.363Z,98540.06
2023-07-21T04:05:51.529Z,98536.88
2023-07-21T04:08:24.398Z,98530.47
2023-07-21T04:10:57.194Z,98536.69
2023-07-21T04:13:30.201Z,98530.19
2023-07-21T04:16:05.159Z,98530.53
2023-07-21T04:18:38.960Z,98543.44
2023-07-21T04:21:11.993Z,98533.91
2023-07-21T04:23:45.173Z,98539.78
2023-07-21T04:26:18.448Z,98530.94
2023-07-21T04:28:51.601Z,98532.72
2023-07-21T04:31:29.935Z,98527.38
2023-07-21T04:34:21.649Z,98528.66
2023-07-21T04:36:55.437Z,98531.66
2023-07-21T04:39:37.133Z,98533.59
2023-07-21T04:42:11.667Z,98528.63
2023-07-21T04:44:49.365Z,98533.28
2023-07-21T04:47:24.090Z,98531.69
2023-07-21T04:50:05.254Z,98529.38
2023-07-21T04:52:39.434Z,98534.91
2023-07-21T04:55:13.233Z,98533.69
2023-07-21T04:57:46.163Z,98535.16
2023-07-21T05:00:21.586Z,98533.28
2023-07-21T05:02:56.142Z,98530.31
2023-07-21T05:05:29.334Z,98539.50
2023-07-21T05:08:04.323Z,98532.66
2023-07-21T05:10:37.756Z,98533.44
2023-07-21T05:13:10.950Z,98537.91
2023-07-21T05:16:06.748Z,98540.44
2023-07-21T05:18:49.603Z,98534.41
2023-07-21T05:21:52.163Z,98537.41
2023-07-21T05:24:53.010Z,98541.16
2023-07-21T05:27:27.519Z,98535.28
2023-07-21T05:30:02.548Z,98540.03
2023-07-21T05:32:42.561Z,98549.91
2023-07-21T05:35:23.533Z,98550.25
2023-07-21T05:38:00.736Z,98550.53
2023-07-21T05:40:34.440Z,98554.44
2023-07-21T05:43:07.475Z,98554.69
2023-07-21T05:45:40.712Z,98561.13
2023-07-21T05:48:13.700Z,98555.56
2023-07-21T05:50:52.757Z,98551.59
2023-07-21T05:53:26.171Z,98556.78
2023-07-21T05:55:59.073Z,98569.25
2023-07-21T05:58:48.166Z,98566.19
2023-07-21T06:01:22.148Z,98558.97
2023-07-21T06:03:55.008Z,98554.41
2023-07-21T06:06:30.417Z,98561.38
2023-07-21T06:09:09.130Z,98550.69
2023-07-21T06:12:14.021Z,98552.69
2023-07-21T06:14:58.084Z,98564.28
2023-07-21T06:17:45.494Z,98560.44
2023-07-21T06:20:18.700Z,98550.91
2023-07-21T06:22:53.574Z,98557.75
2023-07-21T06:25:27.282Z,98555.69
2023-07-21T06:28:09.249Z,98562.44
2023-07-21T06:30:42.388Z,98563.72
2023-07-21T06:33:20.021Z,98566.16
2023-07-21T06:35:57.651Z,98564.22
2023-07-21T06:38:41.548Z,98564.91
2023-07-21T06:41:19.066Z,98552.41
2023-07-21T06:43:52.993Z,98556.84
2023-07-21T06:46:34.092Z,98549.25
2023-07-21T06:49:15.699Z,98563.03
2023-07-21T06:51:56.456Z,98555.25
2023-07-21T06:54:32.120Z,98556.88
2023-07-21T06:57:06.476Z,98546.78
2023-07-21T06:59:39.803Z,98547.16
2023-07-21T07:02:13.770Z,98552.50
2023-07-21T07:04:49.107Z,98543.00
2023-07-21T07:07:22.154Z,98553.19
2023-07-21T07:09:56.380Z,98548.44
2023-07-21T07:12:29.407Z,98555.44
2023-07-21T07:15:02.241Z,98548.78
2023-07-21T07:17:35.515Z,98546.63
2023-07-21T07:20:13.078Z,98545.25
2023-07-21T07:22:48.206Z,98540.09
2023-07-21T07:25:25.873Z,98537.41
2023-07-21T07:27:58.980Z,98554.00
2023-07-21T07:30:31.952Z,98544.63
2023-07-21T07:33:05.087Z,98555.56
2023-07-21T07:35:38.482Z,98556.47
2023-07-21T07:38:11.326Z,98551.47
2023-07-21T07:40:46.158Z,98554.72
2023-07-21T07:43:19.278Z,98550.66
2023-07-21T07:45:52.335Z,98551.97
2023-07-21T07:48:25.341Z,98556.09
2023-07-21T07:50:58.465Z,98551.47
2023-07-21T07:53:31.541Z,98562.00
2023-07-21T07:56:06.372Z,98553.47
2023-07-21T07:58:39.213Z,98558.28
2023-07-21T08:01:14.186Z,98562.72
2023-07-21T08:03:47.591Z,98563.25
2023-07-21T08:06:20.500Z,98564.31
2023-07-21T08:08:53.464Z,98553.44
2023-07-21T08:11:28.182Z,98556.03
2023-07-21T08:14:01.686Z,98553.47
2023-07-21T08:16:37.068Z,98554.50
2023-07-21T08:19:10.068Z,98555.50
2023-07-21T08:21:42.877Z,98554.47
2023-07-21T08:24:16.327Z,98561.69
2023-07-21T08:26:50.593Z,98553.69
2023-07-21T08:29:23.424Z,98556.78
2023-07-21T08:31:56.541Z,98556.31
2023-07-21T08:34:29.742Z,98560.94
2023-07-21T08:37:02.707Z,98567.13
2023-07-21T08:39:35.541Z,98569.47
2023-07-21T08:42:12.685Z,98567.91
2023-07-21T08:44:46.121Z,98572.03
2023-07-21T08:47:20.083Z,98573.59
2023-07-21T08:49:53.295Z,98575.41
2023-07-21T08:52:27.868Z,98577.72
2023-07-21T08:55:02.027Z,98578.25
2023-07-21T08:58:27.712Z,98570.22
2023-07-21T09:01:44.859Z,98583.66
2023-07-21T09:04:22.142Z,98588.06
2023-07-21T09:06:56.961Z,98588.53
2023-07-21T09:09:31.596Z,98587.25
2023-07-21T09:12:07.010Z,98581.59
2023-07-21T09:14:41.731Z,98582.63
2023-07-21T09:17:17.331Z,98587.00
2023-07-21T09:19:51.387Z,98589.84
2023-07-21T09:22:26.397Z,98588.84
2023-07-21T09:24:59.307Z,98584.19
2023-07-21T09:27:32.384Z,98595.81
2023-07-21T09:30:07.112Z,98589.28
2023-07-21T09:32:47.534Z,98594.16
2023-07-21T09:35:20.525Z,98595.53
2023-07-21T09:37:53.815Z,98586.31
2023-07-21T09:40:29.537Z,98596.03
2023-07-21T09:45:36.461Z,98592.88
2023-07-21T09:48:12.442Z,98591.16
2023-07-21T09:50:46.252Z,98596.28
2023-07-21T09:53:21.482Z,98597.91
2023-07-21T09:55:57.058Z,98587.44
2023-07-21T09:58:37.399Z,98586.63
2023-07-21T10:01:11.216Z,98591.69
2023-07-21T10:03:47.857Z,98583.75
2023-07-21T10:06:24.246Z,98580.75
2023-07-21T10:08:58.178Z,98580.50
2023-07-21T10:11:31.462Z,98589.13
2023-07-21T10:14:04.427Z,98575.88
2023-07-21T10:16:37.466Z,98580.72
2023-07-21T10:19:14.357Z,98576.44
2023-07-21T10:21:50.829Z,98573.75
2023-07-21T10:24:25.196Z,98578.84
2023-07-21T10:26:58.366Z,98578.38
2023-07-21T10:29:31.348Z,98568.44
2023-07-21T10:32:06.764Z,98569.59
2023-07-21T10:34:44.509Z,98558.94
2023-07-21T10:37:17.453Z,98562.75
2023-07-21T10:39:55.336Z,98557.91
2023-07-21T10:42:28.191Z,98549.66
2023-07-21T10:45:10.663Z,98546.00
2023-07-21T10:47:43.642Z,98546.09
2023-07-21T10:50:17.988Z,98548.63
2023-07-21T10:52:54.827Z,98533.25
2023-07-21T10:55:27.719Z,98531.59
2023-07-21T10:58:00.577Z,98532.50
2023-07-21T11:00:46.442Z,98539.63
2023-07-21T11:03:19.894Z,98530.84
2023-07-21T11:05:54.315Z,98540.41
2023-07-21T11:08:28.546Z,98545.84
2023-07-21T11:11:01.872Z,98534.78
2023-07-21T11:13:35.512Z,98531.44
2023-07-21T11:16:08.543Z,98525.66
2023-07-21T11:18:42.758Z,98527.72
2023-07-21T11:21:17.353Z,98530.63
2023-07-21T11:23:58.533Z,98527.47
2023-07-21T11:26:31.641Z,98537.53
2023-07-21T11:29:06.873Z,98529.44
2023-07-21T11:31:39.949Z,98527.28
2023-07-21T11:34:19.955Z,98524.56
2023-07-21T11:36:59.493Z,98526.50
2023-07-21T11:39:32.590Z,98523.47
2023-07-21T11:42:05.968Z,98514.97
2023-07-21T11:44:39.257Z,98514.75
2023-07-21T11:47:13.762Z,98515.75
2023-07-21T11:49:48.794Z,98516.19
2023-07-21T11:52:26.346Z,98528.13
2023-07-21T11:55:02.557Z,98534.78
2023-07-21T11:57:35.772Z,98529.13
2023-07-21T12:00:13.248Z,98528.53
2023-07-21T12:02:46.266Z,98523.72
2023-07-21T12:05:19.595Z,98523.56
2023-07-21T12:07:54.380Z,98522.03
2023-07-21T12:10:27.754Z,98524.06
2023-07-21T12:13:00.735Z,98523.47
2023-07-21T12:15:34.930Z,98520.16
2023-07-21T12:18:08.341Z,98519.88
2023-07-21T12:20:41.750Z,98517.69
2023-07-21T12:23:16.836Z,98523.63
2023-07-21T12:25:49.765Z,98508.53
2023-07-21T12:28:22.848Z,98507.69
2023-07-21T12:30:55.794Z,98507.19
2023-07-21T12:33:29.622Z,98517.59
2023-07-21T12:36:04.273Z,98499.38
2023-07-21T12:38:38.483Z,98502.56
2023-07-21T12:41:11.770Z,98493.56
2023-07-21T12:43:44.552Z,98490.44
2023-07-21T12:46:17.475Z,98493.09
2023-07-21T12:48:50.360Z,98497.19
2023-07-21T12:51:24.463Z,98502.88
2023-07-21T12:53:59.096Z,98493.22
2023-07-21T12:56:32.826Z,98481.38
2023-07-21T12:59:06.346Z,98485.94
2023-07-21T13:01:39.246Z,98468.72
2023-07-21T13:04:20.331Z,98468.91
2023-07-21T13:06:55.073Z,98463.44
2023-07-21T13:09:29.379Z,98453.69
2023-07-21T13:12:02.450Z,98455.59
2023-07-21T13:14:35.601Z,98466.94
2023-07-21T13:17:08.462Z,98458.78
2023-07-21T13:19:41.378Z,98459.88
2023-07-21T13:22:14.165Z,98462.09
2023-07-21T13:24:48.362Z,98455.81
2023-07-21T13:27:21.372Z,98453.50
2023-07-21T13:29:54.123Z,98461.38
2023-07-21T13:32:27.045Z,98458.63
2023-07-21T13:35:02.762Z,98450.78
2023-07-21T13:37:36.781Z,98455.78
2023-07-21T13:40:12.114Z,98460.41
2023-07-21T13:42:48.218Z,98454.50
2023-07-21T13:45:22.272Z,98455.22
2023-07-21T13:47:55.246Z,98456.72
2023-07-21T13:50:28.250Z,98464.25
2023-07-21T13:53:01.064Z,98459.66
2023-07-21T13:55:35.308Z,98462.06
2023-07-21T13:58:08.894Z,98460.78
2023-07-21T14:00:42.228Z,98458.38
2023-07-21T14:03:15.094Z,98472.09
2023-07-21T14:05:48.561Z,98458.53
2023-07-21T14:08:21.892Z,98467.88
2023-07-21T14:10:56.323Z,98470.84
2023-07-21T14:13:29.131Z,98472.84
2023-07-21T14:16:01.913Z,98488.31
2023-07-21T14:18:34.832Z,98485.56
2023-07-21T14:21:07.989Z,98498.53
2023-07-21T14:23:41.544Z,98502.84
2023-07-21T14:26:15.971Z,98502.25
2023-07-21T14:28:48.761Z,98512.41
2023-07-21T14:31:22.089Z,98524.00
2023-07-21T14:33:54.946Z,98528.41
2023-07-21T14:36:28.132Z,98543.78
2023-07-21T14:39:00.893Z,98547.22
2023-07-21T14:41:36.250Z,98551.09
2023-07-21T14:44:09.178Z,98563.25
2023-07-21T14:46:42.168Z,98575.66
2023-07-21T14:49:14.980Z,98584.41
2023-07-21T14:51:48.075Z,98597.03
2023-07-21T14:54:21.175Z,98611.09
2023-07-21T14:56:55.417Z,98612.63
2023-07-21T14:59:28.223Z,98635.56
2023-07-21T15:02:01.281Z,98640.00
2023-07-21T15:04:34.192Z,98647.31
2023-07-21T15:07:08.342Z,98658.25
2023-07-21T15:09:41.835Z,98656.03
2023-07-21T15:12:16.019Z,98646.31
2023-07-21T15:14:49.152Z,98655.69
2023-07-21T15:17:22.381Z,98663.97
2023-07-21T15:19:55.161Z,98659.34
2023-07-21T15:22:28.107Z,98663.88
2023-07-21T15:25:03.097Z,98664.47
2023-07-21T15:27:37.529Z,98661.25
2023-07-21T15:30:11.385Z,98666.25
2023-07-21T15:32:44.352Z,98669.50
2023-07-21T15:35:17.806Z,98661.56
2023-07-21T15:37:50.958Z,98669.72
2023-07-21T15:40:24.126Z,98659.59
2023-07-21T15:42:58.369Z,98672.00
2023-07-21T15:45:31.380Z,98669.88
2023-07-21T15:48:04.426Z,98677.28
2023-07-21T15:50:37.599Z,98672.84
2023-07-21T15:53:10.402Z,98675.94
2023-07-21T15:55:43.552Z,98677.63
2023-07-21T15:58:19.710Z,98670.84
2023-07-21T16:00:59.022Z,98678.13
2023-07-21T16:03:32.381Z,98663.28
2023-07-21T16:06:08.335Z,98682.34
2023-07-21T16:08:41.484Z,98681.53
2023-07-21T16:11:14.676Z,98685.66
2023-07-21T16:13:51.022Z,98687.47
2023-07-21T16:16:24.249Z,98691.00
2023-07-21T16:18:57.110Z,98684.22
2023-07-21T16:21:30.124Z,98686.56
2023-07-21T16:24:03.926Z,98692.91
2023-07-21T16:26:36.672Z,98687.19
2023-07-21T16:29:11.058Z,98700.19
2023-07-21T16:31:46.516Z,98690.59
2023-07-21T16:34:20.592Z,98694.50
2023-07-21T16:36:55.387Z,98682.63
2023-07-21T16:39:28.240Z,98684.81
2023-07-21T16:42:01.354Z,98687.75
2023-07-21T16:44:36.643Z,98683.41
2023-07-21T16:47:09.371Z,98691.25
2023-07-21T16:49:42.189Z,98687.69
2023-07-21T16:52:14.944Z,98693.16
2023-07-21T16:54:47.995Z,98689.91
2023-07-21T16:57:21.741Z,98687.50
2023-07-21T16:59:57.577Z,98685.44
2023-07-21T17:02:31.179Z,98696.75
2023-07-21T17:05:20.017Z,98697.97
2023-07-21T17:07:57.344Z,98687.63
2023-07-21T17:10:30.883Z,98687.84
2023-07-21T17:13:05.658Z,98690.81
2023-07-21T17:15:39.890Z,98687.13
2023-07-21T17:18:12.998Z,98681.22
2023-07-21T17:20:45.892Z,98683.41
2023-07-21T17:23:18.862Z,98684.63
2023-07-21T17:25:51.763Z,98688.19
2023-07-21T17:28:24.756Z,98685.03
2023-07-21T17:30:59.040Z,98686.13
2023-07-21T17:33:31.851Z,98689.22
2023-07-21T17:36:05.062Z,98691.50
2023-07-21T17:38:37.876Z,98710.78
2023-07-21T17:41:10.857Z,98706.31
2023-07-21T17:43:43.657Z,98707.47
2023-07-21T17:46:17.818Z,98695.97
2023-07-21T17:48:51.002Z,98705.16
2023-07-21T17:51:25.033Z,98703.13
2023-07-21T17:53:57.993Z,98712.34
2023-07-21T17:56:31.169Z,98714.78
2023-07-21T17:59:04.355Z,98710.13
2023-07-21T18:01:38.655Z,98712.41
2023-07-21T18:04:11.517Z,98713.06
2023-07-21T18:06:44.438Z,98711.47
2023-07-21T18:09:17.214Z,98721.78
2023-07-21T18:11:50.125Z,98727.28
2023-07-21T18:14:23.215Z,98725.28
2023-07-21T18:16:57.475Z,98729.41
2023-07-21T18:19:30.484Z,98742.78
2023-07-21T18:22:03.670Z,98739.94
2023-07-21T18:24:36.588Z,98741.94
2023-07-21T18:27:09.506Z,98736.47
2023-07-21T18:29:42.692Z,98750.72
2023-07-21T18:32:16.987Z,98740.03
2023-07-21T18:34:50.768Z,98744.44
2023-07-21T18:37:23.620Z,98752.44
2023-07-21T18:39:57.234Z,98757.03
2023-07-21T18:42:30.192Z,98755.38
2023-07-21T18:45:03.050Z,98751.91
2023-07-21T18:47:37.253Z,98751.09
2023-07-21T18:50:11.407Z,98756.63
2023-07-21T18:52:44.306Z,98762.50
2023-07-21T18:55:17.634Z,98765.81
2023-07-21T18:57:53.259Z,98776.72
2023-07-21T19:00:26.231Z,98772.75
2023-07-21T19:03:00.746Z,98771.00
2023-07-21T19:05:35.065Z,98775.41
2023-07-21T19:08:08.263Z,98772.88
2023-07-21T19:10:41.989Z,98779.59
2023-07-21T19:13:15.112Z,98776.47
2023-07-21T19:15:49.083Z,98787.41
2023-07-21T19:18:24.282Z,98786.53
2023-07-21T19:20:57.224Z,98790.66
2023-07-21T19:23:30.058Z,98798.66
2023-07-21T19:26:02.880Z,98805.59
2023-07-21T19:28:36.290Z,98805.22
2023-07-21T19:31:09.204Z,98815.66
2023-07-21T19:33:43.447Z,98808.09
2023-07-21T19:36:16.909Z,98808.97
2023-07-21T19:38:50.051Z,98812.75
2023-07-21T19:41:24.323Z,98817.88
2023-07-21T19:43:57.494Z,98821.00
2023-07-21T19:46:32.711Z,98822.47
2023-07-21T19:49:07.350Z,98820.81
2023-07-21T19:51:40.268Z,98828.47
2023-07-21T19:54:13.184Z,98831.56
2023-07-21T19:56:46.017Z,98838.06
2023-07-21T19:59:19.281Z,98831.94
2023-07-21T20:01:52.594Z,98840.38
2023-07-21T20:04:26.864Z,98840.53
2023-07-21T20:06:59.640Z,98843.41
2023-07-21T20:09:32.495Z,98850.22
2023-07-21T20:12:06.509Z,98848.88
2023-07-21T20:14:39.395Z,98853.03
2023-07-21T20:17:13.841Z,98853.66
2023-07-21T20:19:48.854Z,98858.09
2023-07-21T20:22:21.738Z,98849.91
2023-07-21T20:24:54.553Z,98842.72
2023-07-21T20:27:28.232Z,98848.69
2023-07-21T20:30:01.225Z,98861.31
2023-07-21T20:32:34.281Z,98857.53
2023-07-21T20:35:09.889Z,98877.63
2023-07-21T20:37:42.841Z,98866.19
2023-07-21T20:40:16.162Z,98872.19
2023-07-21T20:42:49.242Z,98870.81
2023-07-21T20:45:22.009Z,98871.94
2023-07-21T20:47:54.829Z,98880.69
2023-07-21T20:50:31.055Z,98877.56
2023-07-21T20:53:04.785Z,98885.47
2023-07-21T20:55:37.901Z,98890.34
2023-07-21T20:58:11.530Z,98892.97
2023-07-21T21:00:44.556Z,98884.06
2023-07-21T21:03:17.464Z,98895.13
2023-07-21T21:05:58.619Z,98885.88
2023-07-21T21:08:31.543Z,98893.00
2023-07-21T21:11:04.608Z,98900.59
2023-07-21T21:13:37.508Z,98909.41
2023-07-21T21:16:10.602Z,98904.00
2023-07-21T21:18:43.849Z,98900.47
2023-07-21T21:21:18.112Z,98900.00
2023-07-21T21:23:51.244Z,98903.16
2023-07-21T21:26:24.923Z,98908.03
2023-07-21T21:28:58.271Z,98911.09
2023-07-21T21:31:31.133Z,98924.53
2023-07-21T21:34:04.040Z,98926.41
2023-07-21T21:36:38.503Z,98936.00
2023-07-21T21:39:11.404Z,98941.06
2023-07-21T21:41:44.745Z,98941.53
2023-07-21T21:44:18.267Z,98941.94
2023-07-21T21:46:51.358Z,98951.97
2023-07-21T21:49:24.487Z,98940.25
2023-07-21T21:51:58.723Z,98945.44
2023-07-21T21:54:31.857Z,98938.69
2023-07-21T21:57:10.718Z,98943.91
2023-07-21T21:59:43.976Z,98946.16
2023-07-21T22:02:16.952Z,98953.34
2023-07-21T22:04:50.147Z,98960.00
2023-07-21T22:07:24.672Z,98955.16
2023-07-21T22:09:57.667Z,98954.84
2023-07-21T22:12:30.561Z,98954.00
2023-07-21T22:15:04.260Z,98941.78
2023-07-21T22:17:37.486Z,98945.06
2023-07-21T22:20:12.504Z,98943.19
2023-07-21T22:22:46.957Z,98955.06
2023-07-21T22:25:20.106Z,98961.28
2023-07-21T22:27:53.502Z,98955.34
2023-07-21T22:30:26.364Z,98969.66
2023-07-21T22:32:59.932Z,98968.56
2023-07-21T22:35:33.700Z,98960.75
2023-07-21T22:38:08.006Z,98967.94
2023-07-21T22:40:41.025Z,98955.44
2023-07-21T22:43:13.988Z,98960.47
2023-07-21T22:45:46.955Z,98945.47
2023-07-21T22:48:20.189Z,98943.38
2023-07-21T22:50:53.179Z,98951.34
2023-07-21T22:53:27.375Z,98951.50
2023-07-21T22:56:00.529Z,98948.19
2023-07-21T22:58:33.347Z,98952.94
2023-07-21T23:01:07.185Z,98958.03
2023-07-21T23:03:40.212Z,98958.84
2023-07-21T23:06:13.030Z,98954.56
2023-07-21T23:08:47.864Z,98955.56
2023-07-21T23:11:21.055Z,98960.59
2023-07-21T23:13:54.069Z,98961.06
2023-07-21T23:16:27.368Z,98960.75
2023-07-21T23:19:00.516Z,98953.53
2023-07-21T23:21:33.519Z,98950.88
2023-07-21T23:24:11.135Z,98960.28
2023-07-21T23:26:44.112Z,98957.25
2023-07-21T23:29:17.192Z,98960.06
2023-07-21T23:31:50.630Z,98964.75
2023-07-21T23:34:23.508Z,98969.63
2023-07-21T23:36:56.591Z,98980.41
2023-07-21T23:39:31.061Z,98969.97
2023-07-21T23:42:04.576Z,98978.25
2023-07-21T23:44:37.387Z,98973.56
2023-07-21T23:47:10.695Z,98973.72
2023-07-21T23:49:44.904Z,98980.44
2023-07-21T23:52:18.405Z,98978.59
2023-07-21T23:54:53.089Z,98978.78
2023-07-21T23:57:26.003Z,98974.00
2023-07-21T23:59:59.141Z,98985.34
